Time;durP1;ratioP1;P1;durP2;ratioP2;P2;SDS_P1;SDS_P2;PMS_P1;PMS_P2;Temp;Humidity;BMP_temperature;BMP_pressure;BME280_temperature;BME280_humidity;BME280_pressure;Samples;Min_cycle;Max_cycle;Signal;HPM_P1;HPM_P2
2022/04/17 04:06:30;;;;;;;6.70;4.60;;;0.60;99.90;;;;;;4841375;29;20494;-75
2022/04/17 04:08:58;;;;;;;6.73;4.63;;;0.60;99.90;;;;;;4845683;29;20471;-77
2022/04/17 04:11:27;;;;;;;6.50;4.70;;;0.60;99.90;;;;;;4844724;29;20471;-80
2022/04/17 04:13:55;;;;;;;6.40;4.63;;;0.60;99.90;;;;;;4845232;29;20511;-77
2022/04/17 04:16:23;;;;;;;6.53;5.07;;;0.60;99.90;;;;;;4845372;29;20472;-80
2022/04/17 04:18:52;;;;;;;6.70;4.33;;;0.60;99.90;;;;;;4845192;29;20522;-79
2022/04/17 04:21:20;;;;;;;7.27;4.87;;;0.70;99.90;;;;;;4845273;29;20553;-77
2022/04/17 04:23:50;;;;;;;5.57;4.53;;;0.60;99.90;;;;;;4845365;29;20492;-75
2022/04/17 04:26:18;;;;;;;7.17;4.73;;;0.50;99.90;;;;;;4844666;29;20521;-77
2022/04/17 04:28:45;;;;;;;6.87;5.03;;;0.50;99.90;;;;;;4844585;29;20563;-78
2022/04/17 04:31:16;;;;;;;7.03;5.00;;;0.40;99.90;;;;;;4844837;29;20513;-78
2022/04/17 04:33:44;;;;;;;7.53;5.10;;;0.40;99.90;;;;;;4844984;29;20449;-77
2022/04/17 04:36:13;;;;;;;5.93;5.00;;;0.50;99.90;;;;;;4844721;29;20483;-78
2022/04/17 04:38:41;;;;;;;6.27;5.27;;;0.40;99.90;;;;;;4844940;29;20888;-77
2022/04/17 04:41:10;;;;;;;6.93;4.87;;;0.50;99.90;;;;;;4845026;29;20464;-78
2022/04/17 04:43:39;;;;;;;5.73;4.63;;;0.50;99.90;;;;;;4843941;29;20985;-76
2022/04/17 04:46:09;;;;;;;6.23;5.13;;;0.50;99.90;;;;;;4844619;29;20506;-80
2022/04/17 04:51:25;;;;;;;7.97;5.27;;;0.60;99.90;;;;;;4844969;29;20436;-77
2022/04/17 04:53:56;;;;;;;6.30;4.60;;;0.60;99.90;;;;;;4845119;29;21002;-75
2022/04/17 04:56:26;;;;;;;7.37;4.93;;;0.70;99.90;;;;;;4850258;29;20480;-75
2022/04/17 04:58:54;;;;;;;5.30;4.63;;;0.70;99.90;;;;;;4849566;29;20494;-73
2022/04/17 05:01:22;;;;;;;5.90;4.70;;;0.70;99.90;;;;;;4849287;29;20471;-75
2022/04/17 05:03:50;;;;;;;6.63;4.80;;;0.60;99.90;;;;;;4844743;29;20452;-77
2022/04/17 05:06:19;;;;;;;5.23;4.50;;;0.70;99.90;;;;;;4862946;29;20571;-80
2022/04/17 05:08:48;;;;;;;6.50;4.70;;;0.60;99.90;;;;;;4862457;29;20654;-78
2022/04/17 05:11:16;;;;;;;6.37;4.93;;;0.70;99.90;;;;;;4863046;29;20571;-78
2022/04/17 05:13:45;;;;;;;6.03;4.40;;;0.70;99.90;;;;;;4863122;29;20479;-77
2022/04/17 05:16:14;;;;;;;6.37;4.90;;;0.70;99.90;;;;;;4863108;29;20784;-76
2022/04/17 05:18:43;;;;;;;5.93;4.63;;;0.70;99.90;;;;;;4862448;29;20555;-77
2022/04/17 05:21:11;;;;;;;9.37;4.40;;;0.80;99.90;;;;;;4862599;29;20536;-76
2022/04/17 05:23:39;;;;;;;5.73;4.40;;;0.80;99.90;;;;;;4862345;29;20487;-78
2022/04/17 05:26:07;;;;;;;5.90;4.50;;;0.90;99.90;;;;;;4862844;29;20495;-80
2022/04/17 05:28:35;;;;;;;5.30;4.40;;;1.00;99.90;;;;;;4861799;29;20467;-75
2022/04/17 05:31:05;;;;;;;6.83;4.10;;;1.10;99.90;;;;;;4861615;29;20481;-76
2022/04/17 05:33:33;;;;;;;6.40;4.13;;;1.20;99.90;;;;;;4862416;29;20462;-76
2022/04/17 05:36:01;;;;;;;5.93;4.10;;;1.30;99.90;;;;;;4862046;29;20454;-76
2022/04/17 05:38:29;;;;;;;7.73;4.67;;;1.30;99.90;;;;;;4861963;29;21010;-77
2022/04/17 05:40:58;;;;;;;5.63;4.70;;;1.50;99.90;;;;;;4861844;29;20494;-76
2022/04/17 05:43:27;;;;;;;5.77;4.13;;;1.70;99.90;;;;;;4861653;29;20467;-77
2022/04/17 05:45:58;;;;;;;5.87;4.07;;;1.70;99.90;;;;;;4861690;29;20494;-79
2022/04/17 05:48:28;;;;;;;7.73;4.07;;;1.80;99.90;;;;;;4861807;29;20453;-78
2022/04/17 05:50:56;;;;;;;6.97;4.03;;;1.80;99.90;;;;;;4861886;29;20458;-77
2022/04/17 05:53:24;;;;;;;6.10;3.80;;;1.90;99.90;;;;;;4861342;29;20934;-75
2022/04/17 05:55:53;;;;;;;5.77;3.83;;;2.00;99.90;;;;;;4860541;29;20459;-75
2022/04/17 05:58:21;;;;;;;6.50;3.90;;;2.20;99.90;;;;;;4861882;29;20511;-77
2022/04/17 06:00:49;;;;;;;5.57;3.63;;;2.30;99.90;;;;;;4860974;29;20491;-80
2022/04/17 06:03:17;;;;;;;4.33;3.87;;;2.50;99.90;;;;;;4861248;29;20484;-77
2022/04/17 06:05:46;;;;;;;7.33;3.80;;;2.70;99.90;;;;;;4860534;29;20499;-77
2022/04/17 06:08:14;;;;;;;5.53;3.40;;;3.00;99.90;;;;;;4861193;29;20942;-77
2022/04/17 06:10:42;;;;;;;5.27;3.70;;;3.50;99.90;;;;;;4860799;29;20237;-79
2022/04/17 06:13:11;;;;;;;4.03;3.13;;;4.70;99.90;;;;;;4860476;29;20207;-79
2022/04/17 06:15:40;;;;;;;4.63;3.07;;;6.00;99.90;;;;;;4861158;29;20556;-77
2022/04/17 06:18:10;;;;;;;4.03;2.80;;;7.20;99.90;;;;;;4862104;29;20210;-77
2022/04/17 06:20:39;;;;;;;4.97;3.03;;;8.20;99.90;;;;;;4859298;29;20266;-75
2022/04/17 06:23:08;;;;;;;5.67;3.23;;;8.70;99.40;;;;;;4868587;29;20245;-76
2022/04/17 06:25:38;;;;;;;4.33;2.70;;;9.10;98.20;;;;;;4871538;29;20215;-73
2022/04/17 06:28:07;;;;;;;5.53;3.40;;;10.00;95.90;;;;;;4864177;29;20211;-75
2022/04/17 06:30:35;;;;;;;4.60;3.40;;;9.50;93.70;;;;;;4863069;29;20246;-74
2022/04/17 06:33:04;;;;;;;4.43;3.03;;;9.90;95.00;;;;;;4862988;29;20277;-76
2022/04/17 06:35:32;;;;;;;4.27;3.00;;;9.40;94.40;;;;;;4862828;29;20279;-75
2022/04/17 06:38:02;;;;;;;4.27;2.70;;;10.30;92.90;;;;;;4861940;29;20215;-76
2022/04/17 06:40:34;;;;;;;3.53;2.90;;;10.90;92.20;;;;;;4861847;29;20672;-76
2022/04/17 06:43:05;;;;;;;4.70;3.00;;;11.50;90.70;;;;;;4861323;29;20246;-75
2022/04/17 06:45:42;;;;;;;4.63;2.87;;;10.90;89.40;;;;;;4861639;29;20211;-75
2022/04/17 06:48:17;;;;;;;4.43;2.83;;;11.20;90.20;;;;;;4858460;29;20676;-75
2022/04/17 06:50:47;;;;;;;3.03;2.60;;;11.20;89.70;;;;;;4859905;29;20282;-76
2022/04/17 06:53:16;;;;;;;3.73;2.80;;;11.70;89.10;;;;;;4859366;29;20309;-74
2022/04/17 06:55:48;;;;;;;5.17;3.53;;;11.20;87.40;;;;;;4864759;29;20211;-75
2022/04/17 06:58:17;;;;;;;3.37;2.60;;;12.00;86.20;;;;;;4849874;29;20700;-76
2022/04/17 07:00:46;;;;;;;3.97;3.00;;;12.50;82.60;;;;;;4852038;29;20239;-74
2022/04/17 07:03:14;;;;;;;3.90;2.83;;;10.90;86.00;;;;;;4852271;29;20214;-76
2022/04/17 07:05:43;;;;;;;3.53;3.00;;;11.50;86.70;;;;;;4847745;29;20242;-75
2022/04/17 07:08:12;;;;;;;4.20;2.97;;;11.50;85.50;;;;;;4849244;29;20258;-75
2022/04/17 07:10:41;;;;;;;4.57;2.90;;;12.20;86.00;;;;;;4859400;29;20574;-75
2022/04/17 07:13:14;;;;;;;3.17;2.53;;;13.00;82.20;;;;;;4859738;29;20217;-74
2022/04/17 07:15:43;;;;;;;5.00;2.80;;;13.50;80.20;;;;;;4859464;29;20211;-75
2022/04/17 07:18:11;;;;;;;3.20;2.70;;;13.30;78.20;;;;;;4849035;29;20263;-75
2022/04/17 07:20:40;;;;;;;3.00;2.60;;;13.20;78.70;;;;;;4850768;29;20325;-74
2022/04/17 07:23:08;;;;;;;4.40;2.43;;;13.50;79.10;;;;;;4858780;29;20207;-79
2022/04/17 07:25:36;;;;;;;4.53;2.73;;;13.90;76.80;;;;;;4859602;29;20259;-76
2022/04/17 07:28:05;;;;;;;3.33;2.50;;;13.80;78.10;;;;;;4854324;29;20207;-76
2022/04/17 07:30:35;;;;;;;3.43;2.80;;;15.40;73.80;;;;;;4856536;29;20290;-75
2022/04/17 07:33:04;;;;;;;4.13;2.87;;;15.90;70.00;;;;;;4859279;29;20211;-76
2022/04/17 07:35:32;;;;;;;3.50;2.73;;;15.70;69.40;;;;;;4859087;29;20975;-75
2022/04/17 07:38:03;;;;;;;3.37;2.67;;;15.00;69.90;;;;;;4859382;29;20318;-76
2022/04/17 07:40:34;;;;;;;4.37;2.80;;;15.60;69.20;;;;;;4857994;29;20593;-76
2022/04/17 07:43:04;;;;;;;4.40;2.90;;;16.00;67.70;;;;;;4859400;29;20690;-75
2022/04/17 07:45:33;;;;;;;3.57;2.60;;;14.70;68.70;;;;;;4859103;29;20254;-75
2022/04/17 07:48:03;;;;;;;3.73;2.60;;;14.90;67.60;;;;;;4859437;29;20267;-79
2022/04/17 07:50:32;;;;;;;3.00;2.60;;;15.80;65.70;;;;;;4858987;29;20286;-77
2022/04/17 07:53:01;;;;;;;4.07;2.63;;;17.10;63.50;;;;;;4859158;29;20215;-76
2022/04/17 07:55:29;;;;;;;2.90;2.53;;;17.50;60.80;;;;;;4856160;29;20708;-76
2022/04/17 07:58:07;;;;;;;2.77;2.47;;;17.30;60.40;;;;;;4855024;29;20298;-75
2022/04/17 08:00:45;;;;;;;3.93;2.60;;;15.60;59.40;;;;;;4859157;29;20756;-76
2022/04/17 08:03:24;;;;;;;3.30;2.60;;;15.30;57.90;;;;;;4860319;29;20200;-78
2022/04/17 08:05:53;;;;;;;5.03;2.37;;;13.60;61.40;;;;;;4859353;29;20655;-77
2022/04/17 08:08:25;;;;;;;3.30;2.43;;;14.20;60.80;;;;;;4859434;29;20223;-76
2022/04/17 08:10:53;;;;;;;2.60;2.20;;;15.50;60.00;;;;;;4859540;29;20271;-78
2022/04/17 08:13:21;;;;;;;3.20;2.33;;;16.00;58.40;;;;;;4859528;29;20616;-76
2022/04/17 08:15:50;;;;;;;3.40;2.50;;;16.60;57.30;;;;;;4859021;29;20659;-76
2022/04/17 08:18:19;;;;;;;4.00;2.50;;;17.60;57.40;;;;;;4851532;29;20693;-76
2022/04/17 08:20:48;;;;;;;3.27;2.40;;;16.30;56.50;;;;;;4861552;29;20231;-77
2022/04/17 08:23:16;;;;;;;2.37;2.10;;;16.20;58.20;;;;;;4862398;29;20251;-80
2022/04/17 08:25:44;;;;;;;2.70;2.33;;;15.60;58.10;;;;;;4861975;29;20283;-74
2022/04/17 08:28:12;;;;;;;3.87;2.40;;;14.90;58.00;;;;;;4862219;29;20363;-76
2022/04/17 08:30:40;;;;;;;2.67;2.13;;;15.40;59.60;;;;;;4856210;29;20215;-78
2022/04/17 08:33:10;;;;;;;4.70;2.27;;;17.10;59.10;;;;;;4844266;29;20731;-77
2022/04/17 08:35:40;;;;;;;3.60;2.27;;;18.50;53.50;;;;;;4857132;29;20304;-78
2022/04/17 08:38:08;;;;;;;3.77;2.30;;;17.90;52.30;;;;;;4862507;29;20214;-75
2022/04/17 08:40:39;;;;;;;2.20;1.97;;;18.30;51.60;;;;;;4855199;29;20219;-74
2022/04/17 08:43:08;;;;;;;2.90;2.23;;;18.40;51.50;;;;;;4860967;29;20219;-76
2022/04/17 08:45:36;;;;;;;4.80;2.10;;;17.80;50.50;;;;;;4861672;29;20701;-75
2022/04/17 08:48:06;;;;;;;3.87;2.30;;;18.50;49.20;;;;;;4863313;29;20250;-76
2022/04/17 08:50:41;;;;;;;2.77;2.30;;;18.00;48.80;;;;;;4866833;29;20198;-77
2022/04/17 08:53:10;;;;;;;3.73;2.27;;;17.60;50.00;;;;;;4871394;29;20217;-76
2022/04/17 08:55:39;;;;;;;3.57;2.50;;;17.90;51.00;;;;;;4871850;29;20259;-75
2022/04/17 08:58:07;;;;;;;3.40;2.30;;;17.10;51.40;;;;;;4872900;29;20350;-78
2022/04/17 09:00:35;;;;;;;2.80;2.07;;;17.90;51.00;;;;;;4860760;29;20824;-77
2022/04/17 09:03:07;;;;;;;4.07;2.40;;;17.80;50.90;;;;;;4861164;29;20335;-74
2022/04/17 09:05:37;;;;;;;5.00;2.50;;;17.80;49.10;;;;;;4861498;29;20370;-76
2022/04/17 09:08:18;;;;;;;5.33;2.27;;;17.80;50.40;;;;;;4865553;29;20256;-75
2022/04/17 09:10:56;;;;;;;2.50;2.30;;;17.50;50.20;;;;;;4861165;29;20234;-77
2022/04/17 09:13:30;;;;;;;4.70;2.37;;;17.10;49.50;;;;;;4860601;29;20221;-77
2022/04/17 09:15:58;;;;;;;3.43;2.33;;;17.10;49.70;;;;;;4861352;29;20239;-76
2022/04/17 09:18:32;;;;;;;3.37;2.83;;;15.70;51.30;;;;;;4864994;29;20215;-78
2022/04/17 09:21:02;;;;;;;3.13;2.60;;;15.90;52.80;;;;;;4868415;29;20207;-76
2022/04/17 09:23:36;;;;;;;2.73;2.27;;;16.70;51.30;;;;;;4870930;29;20222;-76
2022/04/17 09:26:06;;;;;;;5.57;2.67;;;17.80;52.10;;;;;;4858210;29;20246;-75
2022/04/17 09:28:36;;;;;;;3.60;2.50;;;16.40;50.20;;;;;;4865360;29;20240;-75
2022/04/17 09:31:10;;;;;;;4.60;2.77;;;16.70;50.70;;;;;;4855787;29;20679;-75
2022/04/17 09:33:40;;;;;;;4.23;2.40;;;17.80;50.20;;;;;;4861492;29;20234;-75
2022/04/17 09:36:09;;;;;;;3.30;2.47;;;16.90;50.70;;;;;;4861429;29;20310;-76
2022/04/17 09:38:43;;;;;;;6.13;4.27;;;17.30;51.10;;;;;;4861353;29;20306;-77
2022/04/17 09:41:13;;;;;;;3.70;2.43;;;18.10;50.20;;;;;;4861513;29;20275;-77
2022/04/17 09:43:43;;;;;;;4.00;2.50;;;18.50;48.80;;;;;;4861998;29;20207;-77
2022/04/17 09:46:13;;;;;;;2.90;2.20;;;19.30;48.20;;;;;;4873407;29;20219;-77
2022/04/17 09:48:43;;;;;;;3.07;2.13;;;16.90;47.70;;;;;;4870939;29;20240;-77
2022/04/17 09:51:22;;;;;;;4.80;2.50;;;15.70;49.10;;;;;;4869990;29;20211;-79
2022/04/17 09:53:59;;;;;;;3.37;2.10;;;15.80;50.20;;;;;;4870527;29;20263;-77
2022/04/17 09:56:33;;;;;;;2.87;2.47;;;16.60;52.40;;;;;;4866234;29;20203;-76
2022/04/17 09:59:16;;;;;;;4.13;2.43;;;16.90;49.10;;;;;;4872425;29;20214;-75
2022/04/17 10:01:46;;;;;;;4.70;2.43;;;16.20;49.70;;;;;;4870012;29;20635;-77
2022/04/17 10:04:16;;;;;;;4.20;2.33;;;16.60;52.10;;;;;;4867818;29;20227;-78
2022/04/17 10:06:44;;;;;;;2.90;2.10;;;17.80;50.30;;;;;;4866712;29;20733;-80
2022/04/17 10:09:16;;;;;;;3.60;2.63;;;19.20;48.30;;;;;;4859845;29;20279;-79
2022/04/17 10:11:44;;;;;;;2.83;2.37;;;19.50;47.30;;;;;;4863701;29;20298;-77
2022/04/17 10:14:12;;;;;;;3.77;3.33;;;18.20;46.40;;;;;;4861974;29;20266;-78
2022/04/17 10:16:42;;;;;;;4.53;2.30;;;18.40;47.80;;;;;;4856150;29;20235;-77
2022/04/17 10:19:13;;;;;;;2.83;2.43;;;19.20;48.50;;;;;;4863056;29;20199;-78
2022/04/17 10:21:43;;;;;;;4.47;2.40;;;18.50;47.20;;;;;;4862866;29;20311;-78
2022/04/17 10:24:13;;;;;;;3.87;2.40;;;18.70;47.20;;;;;;4861321;29;20253;-76
2022/04/17 10:26:47;;;;;;;2.43;2.13;;;19.20;49.30;;;;;;4857637;29;20649;-80
2022/04/17 10:29:21;;;;;;;2.87;2.20;;;19.80;49.80;;;;;;4859931;29;20213;-76
2022/04/17 10:32:08;;;;;;;3.70;2.40;;;20.20;45.80;;;;;;4864866;29;20274;-77
2022/04/17 10:34:58;;;;;;;4.20;2.73;;;17.80;45.40;;;;;;4858885;29;20290;-76
2022/04/17 10:37:52;;;;;;;4.20;2.43;;;16.60;49.40;;;;;;4853402;29;20686;-74
2022/04/17 10:40:20;;;;;;;3.60;2.50;;;16.00;50.90;;;;;;4861260;29;20231;-76
2022/04/17 10:42:59;;;;;;;4.57;2.33;;;17.00;49.80;;;;;;4860204;29;20270;-78
2022/04/17 10:45:31;;;;;;;4.93;2.40;;;17.20;50.10;;;;;;4848161;29;20246;-76
2022/04/17 10:48:07;;;;;;;3.57;2.30;;;17.00;50.30;;;;;;4858190;29;20230;-76
2022/04/17 10:50:42;;;;;;;4.10;2.30;;;16.50;48.80;;;;;;4860860;29;20625;-76
2022/04/17 10:53:24;;;;;;;3.47;2.40;;;16.70;49.80;;;;;;4860767;29;20673;-76
2022/04/17 10:56:03;;;;;;;3.80;2.53;;;16.60;50.00;;;;;;4874054;29;20234;-76
2022/04/17 10:58:45;;;;;;;3.50;2.20;;;16.50;48.90;;;;;;4860657;29;20218;-79
2022/04/17 11:01:13;;;;;;;2.60;2.40;;;17.10;52.00;;;;;;4860609;29;20207;-76
2022/04/17 11:03:52;;;;;;;2.50;2.30;;;17.50;49.20;;;;;;4860386;29;20233;-78
2022/04/17 11:06:30;;;;;;;3.43;2.23;;;18.30;51.50;;;;;;4860558;29;20219;-79
2022/04/17 11:09:05;;;;;;;3.23;2.50;;;18.40;49.80;;;;;;4860416;29;20209;-79
2022/04/17 11:11:37;;;;;;;3.10;2.27;;;17.60;49.10;;;;;;4860649;29;20251;-78
2022/04/17 11:14:10;;;;;;;2.83;2.13;;;18.10;50.70;;;;;;4860373;29;20275;-80
2022/04/17 11:16:53;;;;;;;3.50;2.20;;;17.60;49.90;;;;;;4860251;29;20200;-76
2022/04/17 11:19:24;;;;;;;3.47;2.50;;;16.70;49.40;;;;;;4860649;29;20207;-78
2022/04/17 11:21:53;;;;;;;4.40;2.37;;;16.00;50.70;;;;;;4861475;29;20255;-75
2022/04/17 11:24:22;;;;;;;2.67;2.43;;;15.60;53.50;;;;;;4860007;29;20215;-76
2022/04/17 11:27:12;;;;;;;3.63;2.57;;;14.80;52.20;;;;;;4860238;29;20225;-78
2022/04/17 11:29:50;;;;;;;4.83;2.70;;;15.00;53.30;;;;;;4860036;29;20722;-76
2022/04/17 11:32:51;;;;;;;4.23;2.53;;;15.40;54.50;;;;;;4842002;29;20200;-77
2022/04/17 11:35:22;;;;;;;3.27;2.30;;;16.10;54.60;;;;;;4850857;29;20224;-75
2022/04/17 11:37:57;;;;;;;2.80;2.47;;;16.30;55.50;;;;;;4859841;29;20255;-78
2022/04/17 11:40:27;;;;;;;3.27;2.80;;;16.10;54.50;;;;;;4859136;29;20237;-77
2022/04/17 11:42:58;;;;;;;3.03;2.50;;;15.90;53.90;;;;;;4860423;29;20234;-77
2022/04/17 11:45:29;;;;;;;3.53;2.33;;;16.10;54.10;;;;;;4860855;29;20729;-75
2022/04/17 11:48:04;;;;;;;2.57;2.20;;;15.30;52.90;;;;;;4860113;29;20263;-77
2022/04/17 11:50:33;;;;;;;3.73;2.67;;;15.30;55.20;;;;;;4854180;29;20607;-75
2022/04/17 11:53:02;;;;;;;4.33;2.37;;;15.20;54.90;;;;;;4861662;29;20604;-76
2022/04/17 11:55:33;;;;;;;3.83;2.33;;;14.50;53.50;;;;;;4863488;29;20214;-76
2022/04/17 11:58:03;;;;;;;4.33;2.37;;;14.20;54.70;;;;;;4862340;29;20605;-75
2022/04/17 12:00:33;;;;;;;2.70;2.30;;;14.10;53.60;;;;;;4863753;29;20207;-76
2022/04/17 12:03:03;;;;;;;3.67;2.30;;;14.10;56.30;;;;;;4863721;29;20235;-75
2022/04/17 12:05:32;;;;;;;5.30;2.60;;;14.10;54.90;;;;;;4862625;29;20309;-75
2022/04/17 12:08:06;;;;;;;3.63;2.30;;;14.40;56.50;;;;;;4863196;29;20247;-75
2022/04/17 12:10:37;;;;;;;4.20;2.40;;;14.60;56.10;;;;;;4863477;29;20223;-76
2022/04/17 12:13:16;;;;;;;3.67;2.27;;;14.50;55.40;;;;;;4864099;29;20211;-74
2022/04/17 12:15:59;;;;;;;3.57;2.30;;;14.30;54.00;;;;;;4863855;29;20234;-76
2022/04/17 12:18:29;;;;;;;3.17;2.20;;;14.40;55.40;;;;;;4845342;29;20227;-74
2022/04/17 12:20:59;;;;;;;2.90;2.27;;;14.60;55.10;;;;;;4861972;29;20305;-76
2022/04/17 12:23:29;;;;;;;3.73;2.23;;;14.70;53.90;;;;;;4863684;29;20651;-75
2022/04/17 12:25:59;;;;;;;2.90;2.10;;;14.90;55.30;;;;;;4862584;29;20238;-75
2022/04/17 12:28:28;;;;;;;3.67;2.30;;;14.70;53.40;;;;;;4864254;29;20203;-76
2022/04/17 12:30:58;;;;;;;4.53;2.20;;;14.50;56.10;;;;;;4864852;29;20221;-75
2022/04/17 12:33:28;;;;;;;2.93;2.00;;;14.20;54.00;;;;;;4863827;29;20318;-76
2022/04/17 12:36:04;;;;;;;3.20;2.23;;;14.40;57.00;;;;;;4865145;29;20222;-76
2022/04/17 12:38:34;;;;;;;4.57;2.40;;;14.80;56.10;;;;;;4865133;29;20654;-75
2022/04/17 12:41:22;;;;;;;4.60;2.30;;;15.10;54.20;;;;;;4870422;29;20208;-77
2022/04/17 12:43:57;;;;;;;4.17;2.50;;;14.60;53.30;;;;;;4875531;29;20215;-76
2022/04/17 12:46:28;;;;;;;2.73;2.00;;;14.60;55.00;;;;;;4875302;29;20281;-76
2022/04/17 12:49:09;;;;;;;2.30;2.07;;;14.20;53.70;;;;;;4859790;29;20263;-77
2022/04/17 12:51:39;;;;;;;4.17;2.17;;;14.40;55.40;;;;;;4876269;29;20211;-76
2022/04/17 12:54:12;;;;;;;5.77;2.40;;;14.50;54.30;;;;;;4876876;29;20191;-75
2022/04/17 12:56:42;;;;;;;4.50;2.50;;;14.30;57.10;;;;;;4876577;29;20203;-76
2022/04/17 12:59:13;;;;;;;2.77;2.33;;;14.40;60.00;;;;;;4875185;29;20211;-76
2022/04/17 13:01:49;;;;;;;3.53;2.23;;;14.00;53.30;;;;;;4875189;29;20199;-77
2022/04/17 13:04:20;;;;;;;6.30;2.33;;;14.10;56.00;;;;;;4874343;29;20222;-78
2022/04/17 13:07:09;;;;;;;5.87;2.33;;;14.20;54.90;;;;;;4876847;29;20278;-76
2022/04/17 13:09:38;;;;;;;3.03;2.40;;;14.30;55.10;;;;;;4860067;29;20305;-76
2022/04/17 13:12:07;;;;;;;2.53;2.10;;;14.70;56.50;;;;;;4863078;29;20214;-77
2022/04/17 13:14:56;;;;;;;3.70;1.90;;;15.40;56.40;;;;;;4863807;29;20693;-78
2022/04/17 13:17:25;;;;;;;2.10;1.90;;;15.70;54.70;;;;;;4863587;29;20305;-77
2022/04/17 13:19:54;;;;;;;4.67;2.10;;;15.00;52.70;;;;;;4864014;29;20286;-76
2022/04/17 13:22:22;;;;;;;2.50;1.90;;;15.60;56.50;;;;;;4863917;29;20210;-75
2022/04/17 13:24:51;;;;;;;3.20;2.20;;;15.70;53.80;;;;;;4865620;29;20234;-74
2022/04/17 13:27:19;;;;;;;5.47;2.87;;;14.90;51.10;;;;;;4865799;29;20317;-77
2022/04/17 13:29:49;;;;;;;6.67;3.50;;;14.50;53.10;;;;;;4867202;29;20210;-73
2022/04/17 13:32:18;;;;;;;5.47;2.77;;;13.60;54.60;;;;;;4859515;29;20260;-74
2022/04/17 13:34:47;;;;;;;5.87;3.00;;;13.70;56.20;;;;;;4871541;29;20211;-76
2022/04/17 13:40:04;;;;;;;5.07;2.03;;;13.90;53.60;;;;;;4881544;29;20225;-77
2022/04/17 13:42:36;;;;;;;2.80;2.10;;;13.90;55.20;;;;;;4877685;29;20545;-76
2022/04/17 13:45:06;;;;;;;4.47;2.20;;;14.20;56.40;;;;;;4864245;29;20260;-74
2022/04/17 13:47:35;;;;;;;4.27;2.33;;;14.10;54.00;;;;;;4865320;29;20254;-75
2022/04/17 13:50:08;;;;;;;3.10;2.17;;;14.20;55.90;;;;;;4862925;29;20195;-80
2022/04/17 13:52:41;;;;;;;4.47;2.50;;;14.60;55.00;;;;;;4861873;29;20214;-75
2022/04/17 13:55:11;;;;;;;4.67;2.63;;;14.60;56.80;;;;;;4862538;29;20310;-74
2022/04/17 13:57:40;;;;;;;3.27;2.30;;;14.20;55.50;;;;;;4862906;29;20226;-75
2022/04/17 14:00:09;;;;;;;5.27;2.40;;;14.20;54.70;;;;;;4861525;29;20199;-78
2022/04/17 14:02:38;;;;;;;3.00;2.40;;;13.80;55.30;;;;;;4861629;29;20635;-75
2022/04/17 14:05:08;;;;;;;3.30;2.30;;;13.50;54.40;;;;;;4861888;29;20310;-78
2022/04/17 14:07:38;;;;;;;2.67;2.10;;;13.50;57.00;;;;;;4861403;29;20236;-76
2022/04/17 14:10:07;;;;;;;3.90;2.13;;;13.80;55.50;;;;;;4861354;29;20226;-75
2022/04/17 14:12:39;;;;;;;4.00;2.30;;;13.50;57.70;;;;;;4860197;29;20226;-77
2022/04/17 14:15:08;;;;;;;3.53;2.23;;;13.90;57.70;;;;;;4859516;29;20724;-77
2022/04/17 14:17:37;;;;;;;2.63;2.10;;;13.80;55.90;;;;;;4859702;29;20207;-77
2022/04/17 14:20:09;;;;;;;3.50;2.47;;;13.30;54.00;;;;;;4860682;29;20214;-78
2022/04/17 14:22:41;;;;;;;4.40;2.87;;;12.90;56.10;;;;;;4859719;29;20206;-76
2022/04/17 14:25:10;;;;;;;4.33;3.10;;;12.80;57.00;;;;;;4860200;29;20237;-77
2022/04/17 14:27:38;;;;;;;3.57;2.60;;;12.70;56.80;;;;;;4860986;29;20673;-76
2022/04/17 14:30:08;;;;;;;6.53;3.40;;;12.40;55.60;;;;;;4857631;29;20219;-78
2022/04/17 14:32:36;;;;;;;4.10;2.40;;;12.10;57.50;;;;;;4859443;29;20200;-75
2022/04/17 14:35:07;;;;;;;4.57;2.93;;;12.50;56.60;;;;;;4860933;29;20227;-74
2022/04/17 14:37:37;;;;;;;2.63;2.23;;;12.50;57.40;;;;;;4860970;29;20211;-75
2022/04/17 14:40:06;;;;;;;3.93;2.20;;;13.20;57.90;;;;;;4870704;29;20260;-74
2022/04/17 14:42:34;;;;;;;2.97;2.40;;;13.30;56.30;;;;;;4863553;29;20243;-77
2022/04/17 14:45:02;;;;;;;2.60;2.23;;;13.20;55.00;;;;;;4856821;29;20691;-76
2022/04/17 14:47:33;;;;;;;3.57;2.40;;;13.10;56.80;;;;;;4858090;29;20248;-76
2022/04/17 14:50:03;;;;;;;5.70;3.43;;;12.90;55.50;;;;;;4861167;29;20232;-76
2022/04/17 14:52:31;;;;;;;4.40;3.00;;;12.50;56.60;;;;;;4863026;29;20662;-76
2022/04/17 14:55:00;;;;;;;6.30;2.67;;;13.10;61.10;;;;;;4863683;29;20222;-76
2022/04/17 14:57:29;;;;;;;3.57;2.30;;;13.40;57.10;;;;;;4861263;29;20264;-77
2022/04/17 15:00:00;;;;;;;4.67;3.20;;;13.70;60.30;;;;;;4860939;29;20279;-76
2022/04/17 15:02:29;;;;;;;3.90;2.40;;;12.50;56.40;;;;;;4867268;29;20225;-76
2022/04/17 15:04:59;;;;;;;3.43;2.20;;;13.00;60.60;;;;;;4870845;29;20231;-76
2022/04/17 15:07:31;;;;;;;4.43;2.27;;;13.90;61.50;;;;;;4870804;29;20738;-76
2022/04/17 15:10:03;;;;;;;5.00;3.30;;;14.20;57.30;;;;;;4869814;29;20199;-75
2022/04/17 15:12:33;;;;;;;4.70;2.80;;;13.70;55.80;;;;;;4869092;29;20214;-76
2022/04/17 15:15:05;;;;;;;4.13;2.80;;;13.60;56.50;;;;;;4868369;29;20207;-76
2022/04/17 15:17:37;;;;;;;6.47;2.53;;;13.50;56.40;;;;;;4862136;29;20272;-76
2022/04/17 15:20:20;;;;;;;6.30;3.37;;;13.20;57.10;;;;;;4874928;29;20241;-76
2022/04/17 15:22:49;;;;;;;3.57;2.70;;;13.10;57.00;;;;;;4873089;29;20678;-76
2022/04/17 15:25:20;;;;;;;3.17;2.67;;;12.70;57.80;;;;;;4870203;29;20266;-74
2022/04/17 15:27:49;;;;;;;4.07;2.30;;;12.30;57.50;;;;;;4869377;29;20220;-78
2022/04/17 15:30:19;;;;;;;5.77;3.70;;;12.20;57.60;;;;;;4878491;29;20210;-76
2022/04/17 15:32:48;;;;;;;3.77;2.47;;;12.00;58.30;;;;;;4876333;29;20236;-77
2022/04/17 15:35:16;;;;;;;3.37;2.50;;;12.10;59.40;;;;;;4867619;29;20661;-74
2022/04/17 15:37:44;;;;;;;4.13;2.90;;;12.00;59.20;;;;;;4873956;29;20218;-77
2022/04/17 15:40:13;;;;;;;4.63;2.67;;;12.00;63.30;;;;;;4868168;29;20218;-76
2022/04/17 15:42:44;;;;;;;7.00;4.37;;;12.20;59.70;;;;;;4869740;29;20238;-74
2022/04/17 15:48:06;;;;;;;2.97;2.40;;;11.60;60.10;;;;;;4854685;29;20222;-78
2022/04/17 15:50:36;;;;;;;3.20;2.20;;;11.60;61.50;;;;;;4853741;29;20271;-76
2022/04/17 15:53:05;;;;;;;3.73;2.40;;;11.80;61.00;;;;;;4852931;29;20238;-78
2022/04/17 15:55:36;;;;;;;3.77;2.40;;;11.70;60.90;;;;;;4853702;29;20684;-76
2022/04/17 15:58:06;;;;;;;3.23;2.37;;;11.80;61.80;;;;;;4850830;29;20207;-74
2022/04/17 16:00:34;;;;;;;3.27;2.30;;;11.60;59.70;;;;;;4869723;29;20231;-75
2022/04/17 16:03:02;;;;;;;3.13;2.30;;;11.40;59.90;;;;;;4871010;29;20215;-76
2022/04/17 16:05:31;;;;;;;3.60;2.40;;;11.40;60.80;;;;;;4872869;29;20328;-77
2022/04/17 16:07:59;;;;;;;3.20;2.13;;;11.50;62.10;;;;;;4869118;29;20706;-75
2022/04/17 16:10:27;;;;;;;3.43;2.40;;;11.40;60.00;;;;;;4874683;29;20279;-74
2022/04/17 16:12:59;;;;;;;4.13;2.53;;;11.50;60.90;;;;;;4865934;29;20207;-74
2022/04/17 16:15:29;;;;;;;4.53;2.80;;;11.40;60.90;;;;;;4865793;29;20207;-75
2022/04/17 16:17:57;;;;;;;6.00;3.00;;;11.40;61.60;;;;;;4852254;29;20584;-76
2022/04/17 16:20:31;;;;;;;2.73;2.00;;;11.20;61.40;;;;;;4863335;29;20206;-76
2022/04/17 16:23:01;;;;;;;4.13;2.30;;;11.30;63.40;;;;;;4868391;29;20215;-76
2022/04/17 16:25:29;;;;;;;5.37;2.63;;;11.30;61.80;;;;;;4867488;29;20226;-77
2022/04/17 16:27:59;;;;;;;4.00;2.63;;;11.10;61.50;;;;;;4862849;29;20227;-77
2022/04/17 16:30:30;;;;;;;3.80;2.53;;;11.00;61.90;;;;;;4860207;29;20204;-78
2022/04/17 16:32:59;;;;;;;5.10;2.53;;;11.10;63.00;;;;;;4864579;29;20218;-77
2022/04/17 16:35:28;;;;;;;3.27;2.40;;;11.00;63.30;;;;;;4867224;29;20264;-76
2022/04/17 16:37:57;;;;;;;4.07;2.30;;;11.20;63.50;;;;;;4863567;29;20204;-75
2022/04/17 16:40:26;;;;;;;4.87;2.57;;;11.20;63.40;;;;;;4855406;29;20235;-77
2022/04/17 16:42:56;;;;;;;2.67;2.20;;;11.10;62.80;;;;;;4863322;29;20242;-77
2022/04/17 16:45:24;;;;;;;3.72;2.58;;;10.90;66.00;;;;;;4842894;29;20612;-76
2022/04/17 16:47:54;;;;;;;3.03;2.33;;;11.00;64.20;;;;;;4844127;29;20596;-76
2022/04/17 16:50:22;;;;;;;3.20;2.17;;;10.90;64.10;;;;;;4853767;29;20246;-76
2022/04/17 16:52:50;;;;;;;3.40;2.27;;;10.80;63.40;;;;;;4861750;29;20229;-80
2022/04/17 16:55:19;;;;;;;3.47;2.37;;;10.70;64.40;;;;;;4861934;29;20355;-77
2022/04/17 17:00:33;;;;;;;4.43;2.70;;;10.50;65.90;;;;;;4843177;29;20215;-80
2022/04/17 17:03:03;;;;;;;3.10;2.20;;;10.50;66.40;;;;;;4843676;29;20215;-78
2022/04/17 17:05:32;;;;;;;4.03;2.40;;;10.50;65.10;;;;;;4844784;29;20246;-76
2022/04/17 17:08:00;;;;;;;3.17;2.40;;;10.30;65.70;;;;;;4859733;29;20250;-78
2022/04/17 17:10:28;;;;;;;7.97;2.63;;;10.20;66.70;;;;;;4862296;29;20218;-76
2022/04/17 17:12:57;;;;;;;3.03;2.30;;;10.10;67.00;;;;;;4862219;29;20215;-76
2022/04/17 17:15:25;;;;;;;6.50;3.57;;;10.10;68.80;;;;;;4861692;29;20612;-78
2022/04/17 17:17:54;;;;;;;6.17;3.07;;;10.10;67.80;;;;;;4876288;29;20274;-78
2022/04/17 17:20:24;;;;;;;3.50;2.30;;;10.10;67.70;;;;;;4876088;29;20211;-77
2022/04/17 17:22:53;;;;;;;4.40;3.53;;;10.10;66.80;;;;;;4875927;29;20238;-77